sensor_id;sensor_type;location;lat;lon;timestamp;P1;durP1;ratioP1;P2;durP2;ratioP2
10963;SDS011;5534;48.784;9.190;2023-02-13T00:00:48;14.27;;;7.23;;
10963;SDS011;5534;48.784;9.190;2023-02-13T00:03:14;10.40;;;6.40;;
10963;SDS011;5534;48.784;9.190;2023-02-13T00:05:40;10.70;;;6.60;;
10963;SDS011;5534;48.784;9.190;2023-02-13T00:08:06;10.83;;;7.53;;
10963;SDS011;5534;48.784;9.190;2023-02-13T00:10:32;11.23;;;7.23;;
10963;SDS011;5534;48.784;9.190;2023-02-13T00:12:57;10.73;;;7.07;;
10963;SDS011;5534;48.784;9.190;2023-02-13T00:15:23;12.80;;;6.80;;
10963;SDS011;5534;48.784;9.190;2023-02-13T00:17:49;12.40;;;7.47;;
10963;SDS011;5534;48.784;9.190;2023-02-13T00:20:15;12.27;;;7.17;;
10963;SDS011;5534;48.784;9.190;2023-02-13T00:22:40;11.40;;;7.27;;
10963;SDS011;5534;48.784;9.190;2023-02-13T00:25:06;11.77;;;6.80;;
10963;SDS011;5534;48.784;9.190;2023-02-13T00:27:33;11.97;;;7.13;;
10963;SDS011;5534;48.784;9.190;2023-02-13T00:29:59;14.80;;;8.10;;
10963;SDS011;5534;48.784;9.190;2023-02-13T00:32:24;12.20;;;7.90;;
10963;SDS011;5534;48.784;9.190;2023-02-13T00:34:50;11.83;;;7.00;;
10963;SDS011;5534;48.784;9.190;2023-02-13T00:37:16;13.23;;;7.43;;
10963;SDS011;5534;48.784;9.190;2023-02-13T00:39:42;11.23;;;6.57;;
10963;SDS011;5534;48.784;9.190;2023-02-13T00:42:07;14.40;;;8.13;;
10963;SDS011;5534;48.784;9.190;2023-02-13T00:44:33;12.50;;;7.70;;
10963;SDS011;5534;48.784;9.190;2023-02-13T00:46:59;12.73;;;7.67;;
10963;SDS011;5534;48.784;9.190;2023-02-13T00:49:25;12.23;;;8.00;;
10963;SDS011;5534;48.784;9.190;2023-02-13T00:51:50;16.03;;;8.23;;
10963;SDS011;5534;48.784;9.190;2023-02-13T00:54:16;13.23;;;8.20;;
10963;SDS011;5534;48.784;9.190;2023-02-13T00:56:42;15.97;;;8.40;;
10963;SDS011;5534;48.784;9.190;2023-02-13T00:59:07;13.40;;;8.23;;
10963;SDS011;5534;48.784;9.190;2023-02-13T01:01:33;13.73;;;7.17;;
10963;SDS011;5534;48.784;9.190;2023-02-13T01:03:59;14.07;;;8.07;;
10963;SDS011;5534;48.784;9.190;2023-02-13T01:06:25;12.07;;;7.70;;
10963;SDS011;5534;48.784;9.190;2023-02-13T01:08:50;14.03;;;8.17;;
10963;SDS011;5534;48.784;9.190;2023-02-13T01:11:16;14.10;;;7.63;;
10963;SDS011;5534;48.784;9.190;2023-02-13T01:13:43;16.57;;;8.57;;
10963;SDS011;5534;48.784;9.190;2023-02-13T01:16:10;14.33;;;7.97;;
10963;SDS011;5534;48.784;9.190;2023-02-13T01:18:35;13.37;;;8.13;;
10963;SDS011;5534;48.784;9.190;2023-02-13T01:21:02;15.63;;;8.13;;
10963;SDS011;5534;48.784;9.190;2023-02-13T01:23:33;14.90;;;8.43;;
10963;SDS011;5534;48.784;9.190;2023-02-13T01:26:02;14.10;;;8.17;;
10963;SDS011;5534;48.784;9.190;2023-02-13T01:28:29;15.43;;;8.70;;
10963;SDS011;5534;48.784;9.190;2023-02-13T01:30:55;14.37;;;8.07;;
10963;SDS011;5534;48.784;9.190;2023-02-13T01:33:22;13.83;;;7.53;;
10963;SDS011;5534;48.784;9.190;2023-02-13T01:35:49;16.47;;;8.53;;
10963;SDS011;5534;48.784;9.190;2023-02-13T01:38:15;12.83;;;8.30;;
10963;SDS011;5534;48.784;9.190;2023-02-13T01:40:49;13.57;;;8.20;;
10963;SDS011;5534;48.784;9.190;2023-02-13T01:43:17;14.53;;;9.10;;
10963;SDS011;5534;48.784;9.190;2023-02-13T01:45:44;16.40;;;8.70;;
10963;SDS011;5534;48.784;9.190;2023-02-13T01:48:16;14.90;;;9.23;;
10963;SDS011;5534;48.784;9.190;2023-02-13T01:53:18;16.60;;;9.10;;
10963;SDS011;5534;48.784;9.190;2023-02-13T01:55:47;14.40;;;8.47;;
10963;SDS011;5534;48.784;9.190;2023-02-13T01:58:18;15.83;;;8.47;;
10963;SDS011;5534;48.784;9.190;2023-02-13T02:00:47;15.87;;;9.17;;
10963;SDS011;5534;48.784;9.190;2023-02-13T02:03:17;14.10;;;7.40;;
10963;SDS011;5534;48.784;9.190;2023-02-13T02:05:50;15.60;;;8.07;;
10963;SDS011;5534;48.784;9.190;2023-02-13T02:08:19;18.43;;;9.67;;
10963;SDS011;5534;48.784;9.190;2023-02-13T02:10:45;14.40;;;8.60;;
10963;SDS011;5534;48.784;9.190;2023-02-13T02:13:12;15.73;;;8.33;;
10963;SDS011;5534;48.784;9.190;2023-02-13T02:15:40;13.80;;;7.77;;
10963;SDS011;5534;48.784;9.190;2023-02-13T02:18:14;13.03;;;8.13;;
10963;SDS011;5534;48.784;9.190;2023-02-13T02:41:06;14.70;;;8.70;;
10963;SDS011;5534;48.784;9.190;2023-02-13T02:48:21;14.23;;;7.70;;
10963;SDS011;5534;48.784;9.190;2023-02-13T02:51:24;14.73;;;7.77;;
10963;SDS011;5534;48.784;9.190;2023-02-13T02:57:01;17.00;;;8.53;;
10963;SDS011;5534;48.784;9.190;2023-02-13T02:59:32;14.07;;;8.20;;
10963;SDS011;5534;48.784;9.190;2023-02-13T03:02:19;16.00;;;8.50;;
10963;SDS011;5534;48.784;9.190;2023-02-13T03:05:07;19.77;;;9.13;;
10963;SDS011;5534;48.784;9.190;2023-02-13T03:08:03;19.17;;;8.83;;
10963;SDS011;5534;48.784;9.190;2023-02-13T03:10:30;15.43;;;9.00;;
10963;SDS011;5534;48.784;9.190;2023-02-13T03:13:36;15.27;;;8.23;;
10963;SDS011;5534;48.784;9.190;2023-02-13T03:16:09;14.50;;;8.40;;
10963;SDS011;5534;48.784;9.190;2023-02-13T03:18:58;13.03;;;7.77;;
10963;SDS011;5534;48.784;9.190;2023-02-13T03:41:44;13.07;;;8.10;;
10963;SDS011;5534;48.784;9.190;2023-02-13T03:44:27;17.97;;;10.00;;
10963;SDS011;5534;48.784;9.190;2023-02-13T03:47:02;17.57;;;9.83;;
10963;SDS011;5534;48.784;9.190;2023-02-13T03:49:33;18.00;;;9.60;;
10963;SDS011;5534;48.784;9.190;2023-02-13T03:55:05;18.17;;;9.90;;
10963;SDS011;5534;48.784;9.190;2023-02-13T03:57:54;19.20;;;10.13;;
10963;SDS011;5534;48.784;9.190;2023-02-13T04:00:43;17.93;;;10.37;;
10963;SDS011;5534;48.784;9.190;2023-02-13T04:03:13;15.77;;;9.47;;
10963;SDS011;5534;48.784;9.190;2023-02-13T04:05:46;15.73;;;9.07;;
10963;SDS011;5534;48.784;9.190;2023-02-13T04:08:18;15.03;;;8.50;;
10963;SDS011;5534;48.784;9.190;2023-02-13T04:10:47;15.17;;;8.23;;
10963;SDS011;5534;48.784;9.190;2023-02-13T04:13:18;17.10;;;8.97;;
10963;SDS011;5534;48.784;9.190;2023-02-13T04:15:46;14.80;;;7.60;;
10963;SDS011;5534;48.784;9.190;2023-02-13T04:18:14;13.73;;;8.37;;
10963;SDS011;5534;48.784;9.190;2023-02-13T04:20:46;15.10;;;7.73;;
10963;SDS011;5534;48.784;9.190;2023-02-13T04:23:12;15.53;;;8.97;;
10963;SDS011;5534;48.784;9.190;2023-02-13T04:25:39;17.13;;;9.70;;
10963;SDS011;5534;48.784;9.190;2023-02-13T04:28:08;18.73;;;9.43;;
10963;SDS011;5534;48.784;9.190;2023-02-13T04:30:34;19.40;;;10.40;;
10963;SDS011;5534;48.784;9.190;2023-02-13T04:33:00;15.73;;;9.07;;
10963;SDS011;5534;48.784;9.190;2023-02-13T04:35:25;16.57;;;9.23;;
10963;SDS011;5534;48.784;9.190;2023-02-13T04:37:51;17.17;;;8.50;;
10963;SDS011;5534;48.784;9.190;2023-02-13T04:40:17;16.17;;;9.00;;
10963;SDS011;5534;48.784;9.190;2023-02-13T04:42:43;15.33;;;8.73;;
10963;SDS011;5534;48.784;9.190;2023-02-13T04:45:09;15.97;;;8.70;;
10963;SDS011;5534;48.784;9.190;2023-02-13T04:47:35;17.53;;;9.43;;
10963;SDS011;5534;48.784;9.190;2023-02-13T04:50:00;19.27;;;8.60;;
10963;SDS011;5534;48.784;9.190;2023-02-13T04:52:26;13.70;;;9.03;;
10963;SDS011;5534;48.784;9.190;2023-02-13T04:54:52;14.70;;;8.80;;
10963;SDS011;5534;48.784;9.190;2023-02-13T04:57:18;15.83;;;8.60;;
10963;SDS011;5534;48.784;9.190;2023-02-13T04:59:44;13.57;;;9.07;;
10963;SDS011;5534;48.784;9.190;2023-02-13T05:02:09;16.07;;;8.70;;
10963;SDS011;5534;48.784;9.190;2023-02-13T05:04:35;14.57;;;8.60;;
10963;SDS011;5534;48.784;9.190;2023-02-13T05:07:01;14.93;;;8.23;;
10963;SDS011;5534;48.784;9.190;2023-02-13T05:09:26;13.13;;;8.00;;
10963;SDS011;5534;48.784;9.190;2023-02-13T05:11:52;12.67;;;7.40;;
10963;SDS011;5534;48.784;9.190;2023-02-13T05:14:19;16.37;;;9.73;;
10963;SDS011;5534;48.784;9.190;2023-02-13T05:16:45;16.57;;;8.87;;
10963;SDS011;5534;48.784;9.190;2023-02-13T05:19:11;17.27;;;8.87;;
10963;SDS011;5534;48.784;9.190;2023-02-13T05:21:37;15.83;;;8.77;;
10963;SDS011;5534;48.784;9.190;2023-02-13T05:24:21;14.63;;;8.20;;
10963;SDS011;5534;48.784;9.190;2023-02-13T05:26:47;16.90;;;9.17;;
10963;SDS011;5534;48.784;9.190;2023-02-13T05:29:12;16.07;;;9.50;;
10963;SDS011;5534;48.784;9.190;2023-02-13T05:32:02;12.97;;;8.00;;
10963;SDS011;5534;48.784;9.190;2023-02-13T05:34:28;13.13;;;7.77;;
10963;SDS011;5534;48.784;9.190;2023-02-13T05:36:54;15.27;;;8.40;;
10963;SDS011;5534;48.784;9.190;2023-02-13T05:39:20;13.90;;;8.40;;
10963;SDS011;5534;48.784;9.190;2023-02-13T05:41:47;13.57;;;8.23;;
10963;SDS011;5534;48.784;9.190;2023-02-13T05:44:14;18.00;;;8.90;;
10963;SDS011;5534;48.784;9.190;2023-02-13T05:46:42;15.03;;;8.20;;
10963;SDS011;5534;48.784;9.190;2023-02-13T05:49:09;17.77;;;9.97;;
10963;SDS011;5534;48.784;9.190;2023-02-13T05:51:36;15.53;;;8.83;;
10963;SDS011;5534;48.784;9.190;2023-02-13T05:54:02;15.07;;;8.70;;
10963;SDS011;5534;48.784;9.190;2023-02-13T05:56:28;18.07;;;9.03;;
10963;SDS011;5534;48.784;9.190;2023-02-13T05:58:54;15.97;;;9.03;;
10963;SDS011;5534;48.784;9.190;2023-02-13T06:01:20;15.37;;;8.97;;
10963;SDS011;5534;48.784;9.190;2023-02-13T06:03:47;16.80;;;9.00;;
10963;SDS011;5534;48.784;9.190;2023-02-13T06:06:14;15.43;;;8.17;;
10963;SDS011;5534;48.784;9.190;2023-02-13T06:08:40;21.37;;;8.50;;
10963;SDS011;5534;48.784;9.190;2023-02-13T06:11:07;15.77;;;8.97;;
10963;SDS011;5534;48.784;9.190;2023-02-13T06:13:33;17.80;;;10.10;;
10963;SDS011;5534;48.784;9.190;2023-02-13T06:15:59;15.83;;;9.10;;
10963;SDS011;5534;48.784;9.190;2023-02-13T06:18:25;17.13;;;9.47;;
10963;SDS011;5534;48.784;9.190;2023-02-13T06:20:51;16.77;;;9.40;;
10963;SDS011;5534;48.784;9.190;2023-02-13T06:23:16;15.57;;;8.53;;
10963;SDS011;5534;48.784;9.190;2023-02-13T06:25:42;15.90;;;9.13;;
10963;SDS011;5534;48.784;9.190;2023-02-13T06:28:08;15.90;;;8.67;;
10963;SDS011;5534;48.784;9.190;2023-02-13T06:30:34;12.70;;;8.30;;
10963;SDS011;5534;48.784;9.190;2023-02-13T06:32:59;16.67;;;9.03;;
10963;SDS011;5534;48.784;9.190;2023-02-13T06:35:25;15.23;;;9.17;;
10963;SDS011;5534;48.784;9.190;2023-02-13T06:37:51;13.73;;;8.73;;
10963;SDS011;5534;48.784;9.190;2023-02-13T06:40:17;14.00;;;9.10;;
10963;SDS011;5534;48.784;9.190;2023-02-13T06:42:43;16.13;;;9.67;;
10963;SDS011;5534;48.784;9.190;2023-02-13T06:45:10;17.17;;;9.87;;
10963;SDS011;5534;48.784;9.190;2023-02-13T06:47:40;14.67;;;8.93;;
10963;SDS011;5534;48.784;9.190;2023-02-13T06:50:11;15.30;;;9.70;;
10963;SDS011;5534;48.784;9.190;2023-02-13T06:52:38;17.20;;;9.43;;
10963;SDS011;5534;48.784;9.190;2023-02-13T06:55:09;17.47;;;8.77;;
10963;SDS011;5534;48.784;9.190;2023-02-13T06:57:35;14.53;;;8.97;;
10963;SDS011;5534;48.784;9.190;2023-02-13T07:00:02;15.07;;;9.47;;
10963;SDS011;5534;48.784;9.190;2023-02-13T07:02:33;13.83;;;8.43;;
10963;SDS011;5534;48.784;9.190;2023-02-13T07:04:59;15.50;;;8.43;;
10963;SDS011;5534;48.784;9.190;2023-02-13T07:07:24;19.97;;;9.17;;
10963;SDS011;5534;48.784;9.190;2023-02-13T07:09:50;17.03;;;9.47;;
10963;SDS011;5534;48.784;9.190;2023-02-13T07:12:16;18.33;;;9.40;;
10963;SDS011;5534;48.784;9.190;2023-02-13T07:14:42;21.73;;;11.00;;
10963;SDS011;5534;48.784;9.190;2023-02-13T07:17:08;24.27;;;12.10;;
10963;SDS011;5534;48.784;9.190;2023-02-13T07:19:35;24.63;;;11.47;;
10963;SDS011;5534;48.784;9.190;2023-02-13T07:22:01;24.43;;;11.03;;
10963;SDS011;5534;48.784;9.190;2023-02-13T07:24:26;24.53;;;11.33;;
10963;SDS011;5534;48.784;9.190;2023-02-13T07:26:52;21.67;;;11.47;;
10963;SDS011;5534;48.784;9.190;2023-02-13T07:29:18;25.40;;;11.77;;
10963;SDS011;5534;48.784;9.190;2023-02-13T07:31:47;22.70;;;10.93;;
10963;SDS011;5534;48.784;9.190;2023-02-13T07:34:12;21.97;;;11.03;;
10963;SDS011;5534;48.784;9.190;2023-02-13T07:36:38;21.60;;;11.67;;
10963;SDS011;5534;48.784;9.190;2023-02-13T07:39:04;23.20;;;11.30;;
10963;SDS011;5534;48.784;9.190;2023-02-13T07:41:30;19.20;;;10.03;;
10963;SDS011;5534;48.784;9.190;2023-02-13T07:43:56;24.67;;;11.60;;
10963;SDS011;5534;48.784;9.190;2023-02-13T07:46:21;24.37;;;11.67;;
10963;SDS011;5534;48.784;9.190;2023-02-13T07:48:47;22.07;;;11.27;;
10963;SDS011;5534;48.784;9.190;2023-02-13T07:51:13;20.23;;;11.03;;
10963;SDS011;5534;48.784;9.190;2023-02-13T07:53:38;21.53;;;11.17;;
10963;SDS011;5534;48.784;9.190;2023-02-13T07:56:08;23.40;;;11.00;;
10963;SDS011;5534;48.784;9.190;2023-02-13T07:58:36;22.30;;;12.17;;
10963;SDS011;5534;48.784;9.190;2023-02-13T08:01:05;19.73;;;10.80;;
10963;SDS011;5534;48.784;9.190;2023-02-13T08:03:32;17.50;;;11.10;;
10963;SDS011;5534;48.784;9.190;2023-02-13T08:05:58;18.57;;;10.67;;
10963;SDS011;5534;48.784;9.190;2023-02-13T08:08:25;18.67;;;10.13;;
10963;SDS011;5534;48.784;9.190;2023-02-13T08:10:51;19.40;;;11.20;;
10963;SDS011;5534;48.784;9.190;2023-02-13T08:13:35;23.17;;;11.83;;
10963;SDS011;5534;48.784;9.190;2023-02-13T08:16:01;21.47;;;11.03;;
10963;SDS011;5534;48.784;9.190;2023-02-13T08:18:27;21.40;;;11.77;;
10963;SDS011;5534;48.784;9.190;2023-02-13T08:20:53;22.03;;;11.70;;
10963;SDS011;5534;48.784;9.190;2023-02-13T08:23:18;20.97;;;11.67;;
10963;SDS011;5534;48.784;9.190;2023-02-13T08:25:44;21.00;;;10.80;;
10963;SDS011;5534;48.784;9.190;2023-02-13T08:28:12;19.97;;;11.47;;
10963;SDS011;5534;48.784;9.190;2023-02-13T08:30:37;20.77;;;11.20;;
10963;SDS011;5534;48.784;9.190;2023-02-13T08:33:03;20.87;;;11.43;;
10963;SDS011;5534;48.784;9.190;2023-02-13T08:35:29;19.47;;;11.87;;
10963;SDS011;5534;48.784;9.190;2023-02-13T08:37:55;22.20;;;12.33;;
10963;SDS011;5534;48.784;9.190;2023-02-13T08:40:24;38.70;;;17.60;;
10963;SDS011;5534;48.784;9.190;2023-02-13T08:42:50;23.93;;;14.00;;
10963;SDS011;5534;48.784;9.190;2023-02-13T08:45:18;21.23;;;12.40;;
10963;SDS011;5534;48.784;9.190;2023-02-13T08:47:44;24.50;;;13.40;;
10963;SDS011;5534;48.784;9.190;2023-02-13T08:50:10;22.53;;;13.83;;
10963;SDS011;5534;48.784;9.190;2023-02-13T08:52:35;24.63;;;12.57;;
10963;SDS011;5534;48.784;9.190;2023-02-13T08:55:02;22.03;;;11.80;;
10963;SDS011;5534;48.784;9.190;2023-02-13T08:57:29;22.30;;;11.80;;
10963;SDS011;5534;48.784;9.190;2023-02-13T08:59:55;20.20;;;12.33;;
10963;SDS011;5534;48.784;9.190;2023-02-13T09:02:21;19.27;;;11.50;;
10963;SDS011;5534;48.784;9.190;2023-02-13T09:04:46;19.40;;;12.17;;
10963;SDS011;5534;48.784;9.190;2023-02-13T09:07:13;19.80;;;11.00;;
10963;SDS011;5534;48.784;9.190;2023-02-13T09:09:39;17.70;;;10.53;;
10963;SDS011;5534;48.784;9.190;2023-02-13T09:12:05;18.57;;;10.37;;
10963;SDS011;5534;48.784;9.190;2023-02-13T09:14:30;16.83;;;10.33;;
10963;SDS011;5534;48.784;9.190;2023-02-13T09:16:57;15.83;;;10.27;;
10963;SDS011;5534;48.784;9.190;2023-02-13T09:19:23;15.73;;;9.83;;
10963;SDS011;5534;48.784;9.190;2023-02-13T09:21:49;15.20;;;9.83;;
10963;SDS011;5534;48.784;9.190;2023-02-13T09:24:17;14.77;;;9.90;;
10963;SDS011;5534;48.784;9.190;2023-02-13T09:26:43;15.07;;;9.37;;
10963;SDS011;5534;48.784;9.190;2023-02-13T09:29:09;17.73;;;10.70;;
10963;SDS011;5534;48.784;9.190;2023-02-13T09:31:34;17.90;;;11.47;;
10963;SDS011;5534;48.784;9.190;2023-02-13T09:34:00;20.30;;;11.77;;
10963;SDS011;5534;48.784;9.190;2023-02-13T09:36:27;17.30;;;10.47;;
10963;SDS011;5534;48.784;9.190;2023-02-13T09:38:54;15.03;;;10.17;;
10963;SDS011;5534;48.784;9.190;2023-02-13T09:41:22;16.80;;;9.57;;
10963;SDS011;5534;48.784;9.190;2023-02-13T09:46:27;20.57;;;11.43;;
10963;SDS011;5534;48.784;9.190;2023-02-13T09:48:57;13.07;;;8.60;;
10963;SDS011;5534;48.784;9.190;2023-02-13T09:51:27;14.30;;;8.87;;
10963;SDS011;5534;48.784;9.190;2023-02-13T09:53:54;13.77;;;9.03;;
10963;SDS011;5534;48.784;9.190;2023-02-13T10:16:34;12.53;;;8.30;;
10963;SDS011;5534;48.784;9.190;2023-02-13T10:21:52;10.97;;;7.80;;
10963;SDS011;5534;48.784;9.190;2023-02-13T10:27:04;11.87;;;7.83;;
10963;SDS011;5534;48.784;9.190;2023-02-13T10:30:05;13.43;;;7.80;;
10963;SDS011;5534;48.784;9.190;2023-02-13T10:35:51;12.17;;;7.73;;
10963;SDS011;5534;48.784;9.190;2023-02-13T10:38:26;12.20;;;7.60;;
10963;SDS011;5534;48.784;9.190;2023-02-13T10:41:04;11.87;;;7.33;;
10963;SDS011;5534;48.784;9.190;2023-02-13T10:49:56;10.03;;;7.07;;
10963;SDS011;5534;48.784;9.190;2023-02-13T10:55:25;11.30;;;7.57;;
10963;SDS011;5534;48.784;9.190;2023-02-13T10:58:19;11.40;;;6.43;;
10963;SDS011;5534;48.784;9.190;2023-02-13T11:01:06;11.70;;;7.03;;
10963;SDS011;5534;48.784;9.190;2023-02-13T11:03:42;9.83;;;7.03;;
10963;SDS011;5534;48.784;9.190;2023-02-13T11:06:13;9.17;;;6.67;;
10963;SDS011;5534;48.784;9.190;2023-02-13T11:08:45;10.33;;;6.70;;
10963;SDS011;5534;48.784;9.190;2023-02-13T11:16:48;8.88;;;6.95;;
10963;SDS011;5534;48.784;9.190;2023-02-13T11:19:16;9.07;;;6.17;;
10963;SDS011;5534;48.784;9.190;2023-02-13T11:24:38;8.47;;;6.00;;
10963;SDS011;5534;48.784;9.190;2023-02-13T11:27:07;8.57;;;5.70;;
10963;SDS011;5534;48.784;9.190;2023-02-13T11:29:50;11.00;;;6.27;;
10963;SDS011;5534;48.784;9.190;2023-02-13T11:34:48;6.13;;;5.10;;
10963;SDS011;5534;48.784;9.190;2023-02-13T11:37:22;8.73;;;5.70;;
10963;SDS011;5534;48.784;9.190;2023-02-13T11:39:54;7.50;;;5.37;;
10963;SDS011;5534;48.784;9.190;2023-02-13T11:44:53;7.47;;;5.23;;
10963;SDS011;5534;48.784;9.190;2023-02-13T11:47:56;7.07;;;5.20;;
10963;SDS011;5534;48.784;9.190;2023-02-13T11:50:20;7.67;;;5.30;;
10963;SDS011;5534;48.784;9.190;2023-02-13T11:53:06;7.53;;;5.23;;
10963;SDS011;5534;48.784;9.190;2023-02-13T11:55:59;9.00;;;5.20;;
10963;SDS011;5534;48.784;9.190;2023-02-13T11:58:36;6.80;;;4.60;;
10963;SDS011;5534;48.784;9.190;2023-02-13T12:01:13;7.43;;;5.70;;
10963;SDS011;5534;48.784;9.190;2023-02-13T12:03:56;7.10;;;5.67;;
10963;SDS011;5534;48.784;9.190;2023-02-13T12:06:27;9.63;;;5.57;;
10963;SDS011;5534;48.784;9.190;2023-02-13T12:08:53;7.27;;;4.83;;
10963;SDS011;5534;48.784;9.190;2023-02-13T12:11:26;6.83;;;4.97;;
10963;SDS011;5534;48.784;9.190;2023-02-13T12:14:17;6.93;;;5.13;;
10963;SDS011;5534;48.784;9.190;2023-02-13T12:16:47;6.97;;;5.30;;
10963;SDS011;5534;48.784;9.190;2023-02-13T12:19:24;6.73;;;5.03;;
10963;SDS011;5534;48.784;9.190;2023-02-13T12:22:00;8.27;;;5.60;;
10963;SDS011;5534;48.784;9.190;2023-02-13T12:40:38;7.60;;;5.40;;
10963;SDS011;5534;48.784;9.190;2023-02-13T12:46:36;6.80;;;5.30;;
10963;SDS011;5534;48.784;9.190;2023-02-13T12:57:44;8.52;;;6.10;;
10963;SDS011;5534;48.784;9.190;2023-02-13T13:14:59;10.27;;;6.60;;
10963;SDS011;5534;48.784;9.190;2023-02-13T13:25:48;7.60;;;5.33;;
10963;SDS011;5534;48.784;9.190;2023-02-13T13:28:18;9.00;;;5.50;;
10963;SDS011;5534;48.784;9.190;2023-02-13T13:30:51;7.57;;;5.30;;
10963;SDS011;5534;48.784;9.190;2023-02-13T13:33:21;9.43;;;6.43;;
10963;SDS011;5534;48.784;9.190;2023-02-13T13:38:27;9.00;;;6.50;;
10963;SDS011;5534;48.784;9.190;2023-02-13T13:44:20;7.70;;;6.00;;
10963;SDS011;5534;48.784;9.190;2023-02-13T13:47:02;7.43;;;5.27;;
10963;SDS011;5534;48.784;9.190;2023-02-13T13:49:47;11.50;;;5.83;;
10963;SDS011;5534;48.784;9.190;2023-02-13T13:54:46;8.60;;;6.00;;
10963;SDS011;5534;48.784;9.190;2023-02-13T13:57:17;8.27;;;6.00;;
10963;SDS011;5534;48.784;9.190;2023-02-13T14:07:43;7.53;;;5.23;;
10963;SDS011;5534;48.784;9.190;2023-02-13T14:13:00;8.50;;;5.87;;
10963;SDS011;5534;48.784;9.190;2023-02-13T14:26:38;9.77;;;6.17;;
10963;SDS011;5534;48.784;9.190;2023-02-13T14:31:41;8.97;;;6.10;;
10963;SDS011;5534;48.784;9.190;2023-02-13T14:34:17;9.47;;;5.50;;
10963;SDS011;5534;48.784;9.190;2023-02-13T14:37:11;11.07;;;5.70;;
10963;SDS011;5534;48.784;9.190;2023-02-13T14:42:50;8.90;;;5.97;;
10963;SDS011;5534;48.784;9.190;2023-02-13T14:45:45;9.20;;;5.80;;
10963;SDS011;5534;48.784;9.190;2023-02-13T14:48:15;7.07;;;5.43;;
10963;SDS011;5534;48.784;9.190;2023-02-13T14:50:48;8.77;;;5.57;;
10963;SDS011;5534;48.784;9.190;2023-02-13T14:53:23;7.93;;;5.87;;
10963;SDS011;5534;48.784;9.190;2023-02-13T14:55:57;6.87;;;4.87;;
10963;SDS011;5534;48.784;9.190;2023-02-13T14:58:30;9.73;;;5.90;;
10963;SDS011;5534;48.784;9.190;2023-02-13T15:01:33;8.57;;;5.40;;
10963;SDS011;5534;48.784;9.190;2023-02-13T15:03:59;7.83;;;5.73;;
10963;SDS011;5534;48.784;9.190;2023-02-13T15:06:30;8.77;;;5.43;;
10963;SDS011;5534;48.784;9.190;2023-02-13T15:09:01;8.57;;;5.23;;
10963;SDS011;5534;48.784;9.190;2023-02-13T15:11:33;8.80;;;5.77;;
10963;SDS011;5534;48.784;9.190;2023-02-13T15:16:45;8.30;;;5.40;;
10963;SDS011;5534;48.784;9.190;2023-02-13T15:19:17;8.07;;;5.37;;
10963;SDS011;5534;48.784;9.190;2023-02-13T15:21:46;8.23;;;5.50;;
10963;SDS011;5534;48.784;9.190;2023-02-13T15:24:22;9.13;;;5.53;;
10963;SDS011;5534;48.784;9.190;2023-02-13T15:26:49;7.40;;;4.70;;
10963;SDS011;5534;48.784;9.190;2023-02-13T15:29:18;6.93;;;4.57;;
10963;SDS011;5534;48.784;9.190;2023-02-13T15:31:44;8.23;;;5.57;;
10963;SDS011;5534;48.784;9.190;2023-02-13T15:34:20;7.63;;;5.17;;
10963;SDS011;5534;48.784;9.190;2023-02-13T15:36:48;6.97;;;4.93;;
10963;SDS011;5534;48.784;9.190;2023-02-13T15:39:18;5.43;;;4.60;;
10963;SDS011;5534;48.784;9.190;2023-02-13T15:41:48;6.00;;;4.60;;
10963;SDS011;5534;48.784;9.190;2023-02-13T15:44:16;5.97;;;4.23;;
10963;SDS011;5534;48.784;9.190;2023-02-13T15:46:48;6.57;;;4.67;;
10963;SDS011;5534;48.784;9.190;2023-02-13T15:49:22;6.30;;;4.73;;
10963;SDS011;5534;48.784;9.190;2023-02-13T15:51:50;7.55;;;5.25;;
10963;SDS011;5534;48.784;9.190;2023-02-13T15:54:31;6.47;;;4.67;;
10963;SDS011;5534;48.784;9.190;2023-02-13T15:56:59;9.07;;;5.37;;
10963;SDS011;5534;48.784;9.190;2023-02-13T15:59:34;7.10;;;5.10;;
10963;SDS011;5534;48.784;9.190;2023-02-13T16:02:05;7.90;;;5.03;;
10963;SDS011;5534;48.784;9.190;2023-02-13T16:04:39;6.27;;;4.53;;
10963;SDS011;5534;48.784;9.190;2023-02-13T16:07:09;7.63;;;5.37;;
10963;SDS011;5534;48.784;9.190;2023-02-13T16:09:36;5.97;;;4.53;;
10963;SDS011;5534;48.784;9.190;2023-02-13T16:12:03;7.47;;;4.83;;
10963;SDS011;5534;48.784;9.190;2023-02-13T16:14:35;7.83;;;5.27;;
10963;SDS011;5534;48.784;9.190;2023-02-13T16:17:15;7.03;;;4.90;;
10963;SDS011;5534;48.784;9.190;2023-02-13T16:19:53;7.77;;;5.27;;
10963;SDS011;5534;48.784;9.190;2023-02-13T16:25:13;8.20;;;5.03;;
10963;SDS011;5534;48.784;9.190;2023-02-13T16:30:18;8.30;;;5.20;;
10963;SDS011;5534;48.784;9.190;2023-02-13T16:32:49;8.03;;;5.13;;
10963;SDS011;5534;48.784;9.190;2023-02-13T16:35:25;6.70;;;5.07;;
10963;SDS011;5534;48.784;9.190;2023-02-13T16:37:59;10.33;;;5.60;;
10963;SDS011;5534;48.784;9.190;2023-02-13T16:40:41;9.97;;;5.83;;
10963;SDS011;5534;48.784;9.190;2023-02-13T16:48:34;6.77;;;4.70;;
10963;SDS011;5534;48.784;9.190;2023-02-13T16:51:00;8.63;;;5.80;;
10963;SDS011;5534;48.784;9.190;2023-02-13T16:53:26;7.83;;;5.40;;
10963;SDS011;5534;48.784;9.190;2023-02-13T16:56:02;7.27;;;5.20;;
10963;SDS011;5534;48.784;9.190;2023-02-13T16:58:32;7.20;;;5.50;;
10963;SDS011;5534;48.784;9.190;2023-02-13T17:00:58;8.00;;;5.17;;
10963;SDS011;5534;48.784;9.190;2023-02-13T17:03:26;8.33;;;4.87;;
10963;SDS011;5534;48.784;9.190;2023-02-13T17:05:52;9.30;;;5.47;;
10963;SDS011;5534;48.784;9.190;2023-02-13T17:08:20;9.93;;;5.23;;
10963;SDS011;5534;48.784;9.190;2023-02-13T17:10:59;8.00;;;5.40;;
10963;SDS011;5534;48.784;9.190;2023-02-13T17:13:27;10.97;;;5.73;;
10963;SDS011;5534;48.784;9.190;2023-02-13T17:15:53;8.40;;;5.30;;
10963;SDS011;5534;48.784;9.190;2023-02-13T17:18:19;10.30;;;6.10;;
10963;SDS011;5534;48.784;9.190;2023-02-13T17:20:45;8.47;;;5.73;;
10963;SDS011;5534;48.784;9.190;2023-02-13T17:23:15;7.60;;;5.67;;
10963;SDS011;5534;48.784;9.190;2023-02-13T17:25:42;10.03;;;6.63;;
10963;SDS011;5534;48.784;9.190;2023-02-13T17:28:11;8.63;;;5.80;;
10963;SDS011;5534;48.784;9.190;2023-02-13T17:30:43;9.30;;;5.97;;
10963;SDS011;5534;48.784;9.190;2023-02-13T17:33:29;9.67;;;6.70;;
10963;SDS011;5534;48.784;9.190;2023-02-13T17:35:59;9.83;;;6.17;;
10963;SDS011;5534;48.784;9.190;2023-02-13T17:38:24;9.07;;;6.30;;
10963;SDS011;5534;48.784;9.190;2023-02-13T17:40:50;10.43;;;6.27;;
10963;SDS011;5534;48.784;9.190;2023-02-13T17:43:19;11.90;;;6.80;;
10963;SDS011;5534;48.784;9.190;2023-02-13T17:45:45;10.20;;;6.23;;
10963;SDS011;5534;48.784;9.190;2023-02-13T17:48:12;12.30;;;6.90;;
10963;SDS011;5534;48.784;9.190;2023-02-13T17:50:38;9.60;;;6.50;;
10963;SDS011;5534;48.784;9.190;2023-02-13T17:53:06;9.80;;;6.63;;
10963;SDS011;5534;48.784;9.190;2023-02-13T17:55:38;11.47;;;6.90;;
10963;SDS011;5534;48.784;9.190;2023-02-13T17:58:04;10.77;;;6.97;;
10963;SDS011;5534;48.784;9.190;2023-02-13T18:00:31;10.43;;;7.13;;
10963;SDS011;5534;48.784;9.190;2023-02-13T18:02:58;11.77;;;7.37;;
10963;SDS011;5534;48.784;9.190;2023-02-13T18:05:26;12.23;;;7.20;;
10963;SDS011;5534;48.784;9.190;2023-02-13T18:07:54;11.73;;;7.20;;
10963;SDS011;5534;48.784;9.190;2023-02-13T18:10:21;13.07;;;7.30;;
10963;SDS011;5534;48.784;9.190;2023-02-13T18:12:49;11.63;;;7.20;;
10963;SDS011;5534;48.784;9.190;2023-02-13T18:15:16;13.07;;;6.70;;
10963;SDS011;5534;48.784;9.190;2023-02-13T18:17:44;12.07;;;8.00;;
10963;SDS011;5534;48.784;9.190;2023-02-13T18:20:11;10.00;;;6.67;;
10963;SDS011;5534;48.784;9.190;2023-02-13T18:22:39;10.17;;;7.17;;
10963;SDS011;5534;48.784;9.190;2023-02-13T18:25:05;10.70;;;7.47;;
10963;SDS011;5534;48.784;9.190;2023-02-13T18:27:31;12.40;;;7.33;;
10963;SDS011;5534;48.784;9.190;2023-02-13T18:30:00;11.00;;;6.93;;
10963;SDS011;5534;48.784;9.190;2023-02-13T18:32:26;12.70;;;7.13;;
10963;SDS011;5534;48.784;9.190;2023-02-13T18:34:52;11.37;;;7.57;;